Latest Coastal Weather Observations for Cape Sorell

IDT60701

Issued at 7:52 am EST Friday 19 August 2022 (issued every 10 minutes, with the page automatically refreshed every 10 minutes)

About coastal observations | Map of coastal stations | Coastal observations for TAS | Marine services | Other Formats
Station Details ID: 097000 Name: CAPE SORELL Lat: -42.20 Lon: 145.17 Height: 19.3 m
Data from the previous 72 hours. | See also: Recent months at Cape Sorell
Date/Time
EST
Wind Sea
Height
m
Swell Vis
km
Cloud Weather Temp
°C
Press
MSL
hPa
Rain since
9am
mm
Dir  Spd
kts
Gust
kts
Height
m
Period
s
Dir
19/07:30am NW 17 29 - - - - - - - 8.7 1006.4 8.8
19/07:24am NW 16 27 - - - - - - - 10.0 1006.4 8.8
19/07:00am WNW 17 22 - - - - - - - 9.2 1006.2 8.8
19/06:30am W 11 17 - - - - - - - 8.6 1006.0 8.8
19/06:13am W 19 30 - - - - - - - 8.3 1006.1 8.8
19/06:12am W 19 30 - - - - - - - 8.7 1006.1 8.6
19/06:09am W 16 29 - - - - - - - 8.8 1005.6 8.4
19/06:00am W 11 14 - - - - - - - 9.1 1005.8 8.4
19/05:30am W 12 19 - - - - - - - 8.3 1005.9 8.4
19/05:18am W 21 28 - - - - - - - 8.3 1005.6 8.4
19/05:00am WSW 17 22 - - - - - - - 8.7 1005.5 8.4
19/04:30am W 17 24 - - - - - - - 8.8 1005.3 8.2
19/04:00am W 17 34 - - - - - - - 9.0 1004.9 8.0
19/03:30am W 17 29 - - - - - - - 9.5 1004.6 7.8
19/03:00am W 18 24 - - - - - - - 10.0 1004.4 7.8
19/02:30am W 20 27 - - - - - - - 10.1 1003.9 7.8
19/02:13am WNW 18 28 - - - - - - - 10.3 1003.7 7.8
19/02:00am WNW 21 28 - - - - - - - 10.1 1003.5 7.8
19/01:30am W 20 28 - - - - - - - 9.9 1003.4 7.8
19/01:03am W 18 28 - - - - - - - 9.2 1003.4 7.8
19/01:00am W 19 28 - - - - - - - 9.4 1003.4 7.8
19/12:57am W 18 28 - - - - - - - 9.7 1003.2 7.8
19/12:30am WNW 18 24 - - - - - - - 10.2 1003.2 7.8
19/12:00am WNW 19 25 - - - - - - - 9.9 1002.9 7.6
 
Date/Time
EST
Wind Sea
Height
m
Swell Vis
km
Cloud Weather Temp
°C
Press
MSL
hPa
Rain since
9am
mm
Dir  Spd
kts
Gust
kts
Height
m
Period
s
Dir
18/11:30pm WNW 17 25 - - - - - - - 9.9 1002.9 7.6
18/11:00pm WNW 17 22 - - - - - - - 8.9 1002.9 7.6
18/10:43pm W 18 28 - - - - - - - 10.3 1002.7 7.6
18/10:30pm W 17 23 - - - - - - - 10.1 1002.7 7.6
18/10:00pm WNW 18 26 - - - - - - - 9.5 1002.4 7.6
18/09:30pm WNW 16 22 - - - - - - - 9.2 1002.4 7.6
18/09:15pm W 23 39 - - - - - - - 8.7 1002.5 7.4
18/09:12pm WNW 21 39 - - - - - - - 9.8 1002.0 7.0
18/09:10pm WNW 18 30 - - - - - - - 10.7 1002.2 7.0
18/09:00pm WNW 16 23 - - - - - - - 10.4 1002.0 7.0
18/08:30pm NW 14 21 - - - - - - - 10.1 1001.7 7.0
18/08:00pm WNW 16 23 - - - - - - - 10.1 1001.3 7.0
18/07:30pm NW 17 22 - - - - - - - 9.8 1001.2 7.0
18/07:00pm WNW 15 23 - - - - - - - 10.0 1000.8 7.0
18/06:30pm WNW 16 32 - - - - - - - 9.0 1000.6 7.0
18/06:00pm WNW 17 29 - - - - - - Rain 9.1 1000.2 6.0
18/05:51pm W 18 29 - - - - - - - 9.7 1000.0 5.6
18/05:43pm W 20 27 - - - - - - - 9.4 999.9 5.6
18/05:30pm WNW 19 25 - - - - - - - 10.4 999.8 5.6
18/05:00pm WNW 18 24 - - - - - - - 10.2 999.4 5.6
18/04:30pm W 18 24 - - - - - - - 10.1 999.0 5.6
18/04:00pm W 18 25 - - - - - - - 10.6 998.7 5.2
18/03:30pm W 20 30 - - - - - - - 10.7 997.7 5.2
18/03:08pm WNW 23 33 - - - - - - - 10.8 997.4 5.2
18/03:00pm WNW 26 33 - - - - - - - 10.9 997.1 5.2
18/02:30pm W 27 38 - - - - - - - 10.9 995.9 5.2
18/02:02pm NW 30 43 - - - - - - - 11.4 995.0 5.2
18/02:00pm NW 29 43 - - - - - - - 11.4 995.0 5.2
18/01:31pm NNW 30 41 - - - - - - - 11.5 994.1 5.2
18/01:30pm NNW 30 39 - - - - - - - 11.5 994.3 5.2
18/01:03pm NW 27 37 - - - - - - - 11.5 994.0 4.2
18/01:00pm NW 28 35 - - - - - - - 11.3 994.2 4.2
18/12:30pm NNW 29 40 - - - - - - - 11.5 993.7 3.6
18/12:00pm NNW 24 36 - - - - - - Rain 11.2 994.0 3.2
18/11:30am NNW 25 36 - - - - - - - 13.0 994.4 1.0
18/11:06am NNW 22 32 - - - - - - - 13.3 994.9 1.0
18/11:00am NNW 22 29 - - - - - - - 12.5 994.8 1.0
18/10:53am NNW 25 35 - - - - - - - 11.8 994.7 1.0
18/10:30am NNW 26 33 - - - - - - - 12.3 994.9 1.0
18/10:26am NNW 27 36 - - - - - - - 12.3 994.8 1.0
18/10:04am N 35 45 - - - - - - - 12.4 994.4 0.2
18/10:00am N 36 45 - - - - - - - 12.5 994.5 0.2
18/09:30am N 34 41 - - - - - - - 12.2 994.8 0.2
18/09:09am N 31 41 - - - - - - - 12.1 995.4 0.2
18/09:00am N 29 37 - - - - - - Rain 12.0 995.7 15.0
18/08:30am N 26 34 - - - - - - - 11.9 996.2 14.6
18/08:00am N 29 36 - - - - - - - 11.9 996.2 14.4
18/07:30am N 29 36 - - - - - - - 12.0 996.6 14.2
18/07:12am N 26 36 - - - - - - - 11.8 996.8 14.2
18/07:00am N 23 29 - - - - - - - 11.8 997.3 14.2
18/06:30am N 25 31 - - - - - - - 12.1 998.2 13.4
18/06:00am N 26 31 - - - - - - Recent precip. 11.9 998.3 12.4
18/05:36am NNW 26 37 - - - - - - - 11.8 998.8 12.2
18/05:30am N 29 37 - - - - - - - 11.8 998.7 12.2
18/05:00am N 24 32 - - - - - - - 11.8 999.2 11.0
18/04:30am N 27 36 - - - - - - - 11.6 999.3 8.4
18/04:00am N 26 33 - - - - - - - 11.7 999.9 7.6
18/03:30am N 25 31 - - - - - - - 11.7 999.9 6.8
18/03:00am N 23 30 - - - - - - Recent precip. 11.8 1000.5 6.4
18/02:30am N 27 37 - - - - - - - 12.4 1001.3 5.8
18/02:03am N 24 36 - - - - - - - 12.0 1000.5 5.6
18/02:00am NNE 24 33 - - - - - - - 11.9 1000.6 5.6
18/01:30am N 31 36 - - - - - - - 11.9 1001.1 5.4
18/01:00am N 29 36 - - - - - - - 11.9 1001.9 5.2
18/12:31am N 32 42 - - - - - - - 11.8 1002.5 5.2
18/12:30am N 33 42 - - - - - - - 11.7 1002.4 5.2
18/12:00am N 33 40 - - - - - - Rain 11.7 1002.5 4.2
 
Date/Time
EST
Wind Sea
Height
m
Swell Vis
km
Cloud Weather Temp
°C
Press
MSL
hPa
Rain since
9am
mm
Dir  Spd
kts
Gust
kts
Height
m
Period
s
Dir
17/11:30pm N 31 39 - - - - - - - 11.8 1003.4 3.6
17/11:00pm N 33 40 - - - - - - - 11.9 1003.6 3.2
17/10:36pm N 32 43 - - - - - - - 12.0 1003.4 2.8
17/10:30pm N 32 40 - - - - - - - 12.2 1003.8 2.6
17/10:00pm N 33 43 - - - - - - - 12.3 1004.6 2.6
17/09:30pm N 30 40 - - - - - - - 11.8 1004.7 2.2
17/09:00pm N 29 41 - - - - - - Rain 11.8 1005.3 1.8
17/08:30pm N 27 36 - - - - - - - 12.3 1005.7 1.2
17/08:15pm N 32 43 - - - - - - - 12.2 1005.4 1.2
17/08:00pm N 32 41 - - - - - - - 12.0 1005.7 1.2
17/07:30pm N 28 37 - - - - - - - 12.1 1006.0 1.2
17/07:24pm N 26 37 - - - - - - - 12.0 1006.1 0.8
17/07:00pm N 27 34 - - - - - - - 12.3 1006.3 0.8
17/06:30pm N 31 37 - - - - - - - 12.4 1005.8 0.6
17/06:00pm N 28 34 - - - - - - - 12.5 1006.6 0.2
17/05:30pm N 26 34 - - - - - - - 12.4 1007.0 0.2
17/05:00pm N 27 33 - - - - - - - 13.0 1007.4 0.2
17/04:30pm N 27 33 - - - - - - - 12.9 1007.6 0.2
17/04:00pm N 27 35 - - - - - - - 13.1 1007.6 0.2
17/03:49pm N 27 39 - - - - - - - 13.2 1007.6 0.2
17/03:30pm N 23 31 - - - - - - - 13.4 1008.2 0.2
17/03:00pm N 19 25 - - - - - - - 13.5 1008.5 0.2
17/02:30pm N 19 23 - - - - - - - 13.2 1008.4 0.2
17/02:00pm N 20 23 - - - - - - - 12.7 1008.9 0.2
17/01:30pm N 20 25 - - - - - - - 12.7 1009.8 0.2
17/01:00pm N 17 22 - - - - - - - 12.6 1010.1 0.2
17/12:30pm N 17 22 - - - - - - - 12.2 1011.6 0.0
17/12:00pm N 17 20 - - - - - - - 12.2 1012.4 0.0
17/11:30am N 16 23 - - - - - - - 11.9 1013.3 0.0
17/11:00am N 18 24 - - - - - - - 11.7 1013.8 0.0
17/10:30am N 17 21 - - - - - - - 11.1 1014.5 0.0
17/10:00am N 16 20 - - - - - - - 10.8 1014.8 0.0
17/09:30am NNE 13 16 - - - - - - - 10.1 1014.7 0.0
17/09:00am NNE 13 16 - - - - - - - 9.5 1015.2 0.0
17/08:30am NNE 13 16 - - - - - - - 9.0 1014.9 0.0
17/08:00am NNE 13 16 - - - - - - - 9.2 1015.2 0.0
17/07:30am N 12 15 - - - - - - - 9.0 1015.1 0.0
17/07:00am NNE 14 17 - - - - - - - 9.2 1015.3 0.0
17/06:30am NNE 12 16 - - - - - - - 9.1 1015.3 0.0
17/06:00am NE 11 14 - - - - - - - 9.1 1015.2 0.0
17/05:30am NNE 8 9 - - - - - - - 9.2 1015.3 0.0
17/05:00am NNE 5 7 - - - - - - - 9.2 1015.6 0.0
17/04:30am NNE 4 5 - - - - - - - 9.1 1015.5 0.0
17/04:00am NNE 5 6 - - - - - - - 9.2 1015.2 0.0
17/03:30am NNE 5 7 - - - - - - - 9.1 1015.7 0.0
17/03:00am N 5 6 - - - - - - - 8.9 1015.6 0.0
17/02:30am ENE 6 7 - - - - - - - 8.7 1015.0 0.0
17/02:00am ENE 5 6 - - - - - - - 8.6 1015.5 0.0
17/01:30am ENE 5 7 - - - - - - - 8.6 1015.3 0.0
17/01:00am ENE 3 3 - - - - - - - 8.4 1015.5 0.0
17/12:30am ENE 2 3 - - - - - - - 8.6 1015.5 0.0
17/12:00am ENE 5 6 - - - - - - - 8.5 1015.5 0.0
 
Date/Time
EST
Wind Sea
Height
m
Swell Vis
km
Cloud Weather Temp
°C
Press
MSL
hPa
Rain since
9am
mm
Dir  Spd
kts
Gust
kts
Height
m
Period
s
Dir
16/11:30pm ENE 4 5 - - - - - - - 8.3 1016.0 0.0
16/11:00pm E 4 4 - - - - - - - 8.8 1016.4 0.0
16/10:30pm SSE 2 4 - - - - - - - 9.4 1016.4 0.0
16/10:00pm SSW 5 6 - - - - - - - 9.6 1016.3 0.0
16/09:30pm SSW 8 10 - - - - - - - 10.0 1016.3 0.0
16/09:00pm SSW 10 12 - - - - - - - 9.8 1016.2 0.0
16/08:30pm SSW 11 14 - - - - - - - 9.7 1015.8 0.0
16/08:00pm SW 15 18 - - - - - - - 9.6 1015.7 0.0
16/07:30pm SSW 18 21 - - - - - - - 9.9 1015.7 0.0
16/07:00pm SW 17 21 - - - - - - - 10.4 1015.4 0.0
16/06:30pm SW 17 21 - - - - - - - 10.5 1015.1 0.0
16/06:00pm SW 16 19 - - - - - - - 10.4 1014.5 0.0
16/05:30pm SSW 14 17 - - - - - - - 10.4 1013.3 0.0
16/05:00pm SSW 15 18 - - - - - - - 10.7 1012.6 0.0
16/04:30pm SSW 17 21 - - - - - - - 11.0 1011.6 0.0
16/04:00pm SSW 18 21 - - - - - - - 11.2 1011.6 0.0
16/03:30pm SSW 18 23 - - - - - - - 11.5 1011.5 0.0
16/03:00pm SSW 21 25 - - - - - - - 11.6 1011.3 0.0
16/02:30pm SSW 22 27 - - - - - - - 11.4 1011.1 0.0
16/02:00pm SSW 22 25 - - - - - - - 12.1 1010.8 0.0
16/01:30pm SSW 22 26 - - - - - - - 11.8 1010.3 0.0
16/01:00pm SSW 22 25 - - - - - - - 12.3 1010.0 0.0
16/12:30pm SSW 21 25 - - - - - - - 12.5 1010.0 0.0
16/12:00pm SSW 23 28 - - - - - - - 12.2 1009.9 0.0
16/11:30am SSW 22 25 - - - - - - - 11.9 1009.7 0.0
16/11:00am SSW 21 24 - - - - - - - 12.3 1009.3 0.0
16/10:30am SSW 21 25 - - - - - - - 11.5 1008.8 0.0
16/10:00am SSW 24 28 - - - - - - - 11.9 1008.6 0.0
16/09:30am SSW 20 23 - - - - - - - 11.8 1008.1 0.0
16/09:00am SSW 19 23 - - - - - - - 11.8 1007.4 3.4
16/08:30am SSW 22 27 - - - - - - - 11.4 1007.0 3.4
16/08:00am SSW 24 28 - - - - - - - 11.0 1006.3 3.4

Other formats

Comma delimited format used in spreadsheet applications
http://www.bom.gov.au/fwo/IDT60701/IDT60701.94974.axf

JavaScript Object Notation format (JSON) in row-major order
http://www.bom.gov.au/fwo/IDT60701/IDT60701.94974.json

Data quality

Most of these data are generated automatically and are frequently updated. Quality checks on data are not normally performed. It is possible for incorrect values to appear. Refer to information at About Latest Weather Observations and please check the disclaimer before using these data.